createdAt,value
2022-12-20T00:01:35.699Z,60.90
2022-12-20T00:04:33.488Z,60.60
2022-12-20T00:07:32.044Z,60.40
2022-12-20T00:10:32.602Z,60.40
2022-12-20T00:13:19.468Z,60.20
2022-12-20T00:16:18.823Z,60.40
2022-12-20T00:19:19.057Z,60.80
2022-12-20T00:22:05.615Z,60.60
2022-12-20T00:25:04.630Z,60.90
2022-12-20T00:28:03.521Z,60.50
2022-12-20T00:33:57.653Z,60.90
2022-12-20T00:54:17.526Z,60.60
2022-12-20T00:57:04.606Z,60.80
2022-12-20T01:00:07.210Z,60.90
2022-12-20T01:03:05.092Z,61.10
2022-12-20T01:06:04.225Z,60.80
2022-12-20T01:08:50.721Z,61.10
2022-12-20T01:40:54.046Z,61.30
2022-12-20T01:43:52.011Z,61.70
2022-12-20T01:46:39.738Z,61.40
2022-12-20T01:49:31.610Z,61.50
2022-12-20T01:52:21.363Z,61.40
2022-12-20T01:55:13.876Z,62.00
2022-12-20T01:58:11.234Z,62.00
2022-12-20T02:04:06.845Z,61.80
2022-12-20T02:06:36.199Z,61.90
2022-12-20T02:09:38.925Z,62.00
2022-12-20T02:12:27.512Z,62.20
2022-12-20T02:15:33.429Z,62.30
2022-12-20T02:18:45.144Z,62.30
2022-12-20T02:31:20.291Z,62.70
2022-12-20T02:34:11.688Z,62.30
2022-12-20T02:36:59.029Z,62.60
2022-12-20T02:39:59.569Z,62.80
2022-12-20T02:42:56.649Z,62.70
2022-12-20T02:45:45.391Z,62.90
2022-12-20T02:48:37.359Z,63.10
2022-12-20T02:51:26.198Z,62.80
2022-12-20T02:54:20.198Z,62.90
2022-12-20T03:12:50.620Z,63.00
2022-12-20T03:15:37.855Z,63.00
2022-12-20T03:18:27.335Z,63.20
2022-12-20T03:21:27.891Z,63.00
2022-12-20T03:24:14.993Z,63.50
2022-12-20T03:27:09.540Z,63.40
2022-12-20T03:30:05.103Z,63.40
2022-12-20T03:32:51.657Z,63.80
2022-12-20T03:35:38.689Z,63.70
2022-12-20T03:38:39.042Z,63.30
2022-12-20T03:41:39.336Z,63.80
2022-12-20T03:44:36.805Z,64.00
2022-12-20T03:47:25.775Z,64.10
2022-12-20T03:49:54.118Z,64.10
2022-12-20T03:52:41.241Z,64.10
2022-12-20T03:55:28.046Z,64.50
2022-12-20T03:58:16.617Z,64.30
2022-12-20T04:01:03.440Z,64.40
2022-12-20T04:03:59.247Z,63.90
2022-12-20T04:06:37.384Z,70.80
2022-12-20T04:09:24.614Z,70.90
2022-12-20T04:12:11.265Z,70.80
2022-12-20T04:15:00.643Z,71.00
2022-12-20T04:18:03.902Z,70.90
2022-12-20T04:20:34.759Z,71.00
2022-12-20T04:23:42.522Z,70.90
2022-12-20T04:26:29.646Z,70.90
2022-12-20T04:53:02.923Z,71.40
2022-12-20T04:55:56.194Z,71.30
2022-12-20T04:58:43.712Z,71.30
2022-12-20T05:01:30.600Z,71.40
2022-12-20T05:04:17.409Z,71.30
2022-12-20T05:07:04.075Z,71.40
2022-12-20T05:10:02.780Z,71.30
2022-12-20T05:12:50.070Z,71.40
2022-12-20T05:15:53.087Z,71.30
2022-12-20T05:34:04.488Z,71.30
2022-12-20T05:36:51.683Z,71.20
2022-12-20T05:47:22.346Z,71.40
2022-12-20T05:50:18.386Z,71.50
2022-12-20T05:53:11.362Z,71.40
2022-12-20T05:55:51.300Z,71.30
2022-12-20T05:58:41.123Z,71.40
2022-12-20T06:01:11.114Z,71.50
2022-12-20T06:04:11.429Z,71.50
2022-12-20T06:07:00.576Z,71.30
2022-12-20T06:09:46.969Z,71.30
2022-12-20T06:12:44.328Z,71.40
2022-12-20T06:15:50.361Z,71.30
2022-12-20T06:18:20.255Z,71.40
2022-12-20T06:21:07.446Z,71.30
2022-12-20T06:23:37.293Z,71.50
2022-12-20T06:26:24.140Z,71.30
2022-12-20T06:29:58.928Z,71.30
2022-12-20T06:32:28.278Z,71.00
2022-12-20T06:35:14.844Z,71.10
2022-12-20T06:38:04.084Z,71.20
2022-12-20T06:40:52.559Z,71.00
2022-12-20T06:43:39.100Z,71.20
2022-12-20T06:46:25.737Z,70.90
2022-12-20T06:49:12.226Z,71.10
2022-12-20T06:52:12.607Z,71.00
2022-12-20T06:55:12.692Z,70.90
2022-12-20T06:58:00.541Z,70.90
2022-12-20T07:00:51.471Z,70.80
2022-12-20T07:03:42.783Z,70.90
2022-12-20T07:06:31.108Z,70.80
2022-12-20T07:32:49.560Z,70.80
2022-12-20T07:35:37.814Z,70.80
2022-12-20T07:38:31.464Z,70.80
2022-12-20T07:41:35.492Z,70.70
2022-12-20T07:44:29.112Z,70.90
2022-12-20T07:47:15.536Z,70.90
2022-12-20T07:50:11.750Z,70.70
2022-12-20T07:53:01.007Z,70.90
2022-12-20T07:55:49.071Z,70.90
2022-12-20T07:58:52.086Z,70.90
2022-12-20T08:01:39.125Z,71.00
2022-12-20T08:04:30.884Z,70.80
2022-12-20T08:10:21.047Z,70.80
2022-12-20T08:13:09.691Z,70.80
2022-12-20T08:15:57.965Z,70.80
2022-12-20T08:18:44.673Z,70.70
2022-12-20T08:21:51.367Z,70.80
2022-12-20T08:24:38.332Z,70.80
2022-12-20T08:27:26.214Z,64.40
2022-12-20T08:30:15.398Z,70.70
2022-12-20T08:33:01.841Z,64.50
2022-12-20T08:35:49.246Z,64.50
2022-12-20T08:38:36.716Z,70.80
2022-12-20T08:41:25.524Z,70.80
2022-12-20T08:44:16.386Z,70.80
2022-12-20T08:47:03.427Z,70.70
2022-12-20T08:49:42.443Z,64.40
2022-12-20T08:52:32.754Z,70.80
2022-12-20T08:55:22.112Z,64.40
2022-12-20T08:58:19.664Z,64.40
2022-12-20T09:01:14.942Z,70.70
2022-12-20T09:04:21.725Z,64.10
2022-12-20T09:06:55.067Z,64.20
2022-12-20T09:09:43.716Z,63.80
2022-12-20T09:12:30.520Z,64.00
2022-12-20T09:15:17.682Z,63.60
2022-12-20T09:18:05.826Z,63.70
2022-12-20T09:20:52.733Z,63.50
2022-12-20T09:23:39.690Z,63.10
2022-12-20T09:26:27.225Z,63.50
2022-12-20T09:29:14.791Z,63.20
2022-12-20T09:32:04.280Z,63.30
2022-12-20T09:35:09.541Z,63.00
2022-12-20T09:37:55.979Z,63.30
2022-12-20T09:40:32.745Z,63.10
2022-12-20T09:43:21.977Z,63.20
2022-12-20T09:46:08.597Z,62.70
2022-12-20T09:49:12.886Z,62.40
2022-12-20T09:52:26.663Z,62.60
2022-12-20T09:55:23.487Z,62.90
2022-12-20T09:58:40.032Z,62.30
2022-12-20T10:01:34.565Z,62.40
2022-12-20T10:04:27.264Z,62.50
2022-12-20T10:07:30.356Z,62.20
2022-12-20T10:10:55.483Z,62.40
2022-12-20T10:35:17.827Z,62.10
2022-12-20T10:38:07.969Z,61.90
2022-12-20T10:41:21.191Z,61.90
2022-12-20T10:44:25.717Z,61.80
2022-12-20T10:47:38.783Z,61.60
2022-12-20T10:50:31.395Z,61.80
2022-12-20T10:53:24.156Z,61.80
2022-12-20T10:56:20.014Z,61.60
2022-12-20T10:59:31.447Z,62.00
2022-12-20T11:02:38.895Z,61.90
2022-12-20T11:30:21.996Z,61.60
2022-12-20T11:33:33.476Z,61.50
2022-12-20T11:36:53.244Z,61.20
2022-12-20T11:39:46.489Z,61.10
2022-12-20T11:42:52.854Z,61.30
2022-12-20T11:45:43.849Z,61.10
2022-12-20T11:48:46.455Z,60.70
2022-12-20T11:51:43.701Z,61.20
2022-12-20T11:54:42.881Z,60.80
2022-12-20T11:58:16.854Z,60.80
2022-12-20T12:04:05.379Z,61.00
2022-12-20T12:07:18.466Z,61.00
2022-12-20T12:10:24.413Z,60.80
2022-12-20T12:13:18.845Z,60.80
2022-12-20T13:12:56.914Z,60.10
2022-12-20T13:15:57.316Z,60.20
2022-12-20T13:19:12.209Z,60.10
2022-12-20T13:22:22.870Z,60.10
2022-12-20T13:25:31.172Z,60.00
2022-12-20T13:28:46.793Z,59.70
2022-12-20T13:31:37.658Z,59.90
2022-12-20T13:34:53.378Z,59.60
2022-12-20T13:37:56.165Z,59.70
2022-12-20T13:40:47.043Z,59.80
2022-12-20T13:43:43.147Z,59.80
2022-12-20T13:46:55.363Z,59.80
2022-12-20T13:49:43.733Z,60.10
2022-12-20T13:55:39.958Z,60.00
2022-12-20T13:58:46.153Z,60.00
2022-12-20T14:01:49.473Z,59.80
2022-12-20T14:04:42.526Z,60.00
2022-12-20T14:07:56.675Z,60.00
2022-12-20T14:10:55.539Z,59.70
2022-12-20T14:13:53.508Z,59.70
2022-12-20T14:16:51.004Z,59.50
2022-12-20T14:19:37.812Z,59.90
2022-12-20T14:22:24.475Z,59.80
2022-12-20T14:31:44.067Z,59.50
2022-12-20T14:34:42.097Z,60.00
2022-12-20T14:38:09.924Z,60.00
2022-12-20T14:40:45.751Z,59.70
2022-12-20T14:49:38.962Z,59.90
2022-12-20T14:52:33.876Z,59.90
2022-12-20T14:55:36.427Z,59.80
2022-12-20T14:58:27.653Z,59.70
2022-12-20T15:01:21.017Z,59.20
2022-12-20T15:04:25.516Z,59.70
2022-12-20T15:07:35.967Z,59.60
2022-12-20T15:10:23.697Z,59.70
2022-12-20T15:16:19.742Z,60.20
2022-12-20T15:19:10.522Z,59.40
2022-12-20T15:21:57.547Z,59.50
2022-12-20T15:24:31.533Z,59.30
2022-12-20T15:27:20.158Z,60.10
2022-12-20T15:30:13.816Z,59.70
2022-12-20T15:33:01.844Z,59.70
2022-12-20T15:35:48.921Z,59.50
2022-12-20T15:38:25.538Z,59.80
2022-12-20T15:41:24.423Z,59.70
2022-12-20T15:44:15.954Z,59.70
2022-12-20T15:47:21.997Z,60.00
2022-12-20T15:50:13.867Z,59.60
2022-12-20T15:53:14.552Z,59.70
2022-12-20T15:56:01.700Z,59.60
2022-12-20T15:58:52.590Z,59.90
2022-12-20T16:01:41.475Z,59.80
2022-12-20T16:04:33.279Z,60.00
2022-12-20T16:07:22.289Z,59.80
2022-12-20T16:10:11.599Z,60.00
2022-12-20T16:13:00.276Z,59.60
2022-12-20T16:19:11.525Z,59.90
2022-12-20T16:21:58.515Z,59.90
2022-12-20T16:24:47.058Z,59.80
2022-12-20T16:28:38.799Z,59.90
2022-12-20T16:31:27.448Z,59.50
2022-12-20T16:49:13.445Z,60.10
2022-12-20T17:12:01.152Z,60.00
2022-12-20T17:14:49.150Z,60.10
2022-12-20T17:17:35.839Z,60.20
2022-12-20T17:20:08.326Z,60.20
2022-12-20T17:22:59.127Z,60.10
2022-12-20T17:26:02.421Z,60.10
2022-12-20T17:28:51.684Z,60.20
2022-12-20T17:31:39.719Z,59.90
2022-12-20T17:34:28.506Z,60.20
2022-12-20T17:37:15.023Z,60.00
2022-12-20T17:40:02.186Z,59.90
2022-12-20T17:42:51.399Z,60.10
2022-12-20T17:45:40.114Z,60.10
2022-12-20T17:48:36.609Z,60.10
2022-12-20T17:51:39.423Z,59.80
2022-12-20T17:54:34.945Z,59.80
2022-12-20T17:57:25.346Z,60.10
2022-12-20T18:00:23.319Z,60.00
2022-12-20T18:03:30.073Z,59.90
2022-12-20T18:06:19.555Z,59.90
2022-12-20T18:09:08.394Z,59.70
2022-12-20T18:11:54.651Z,59.90
2022-12-20T18:14:27.255Z,59.90
2022-12-20T18:17:33.658Z,59.90
2022-12-20T18:20:21.550Z,60.10
2022-12-20T18:23:09.932Z,59.80
2022-12-20T18:26:06.824Z,59.80
2022-12-20T18:28:56.900Z,59.70
2022-12-20T18:31:54.139Z,60.10
2022-12-20T18:34:40.987Z,60.00
2022-12-20T18:37:33.000Z,60.00
2022-12-20T18:40:36.346Z,60.20
2022-12-20T19:12:37.017Z,59.90
2022-12-20T19:15:25.401Z,59.90
2022-12-20T19:18:25.336Z,59.70
2022-12-20T19:21:14.276Z,59.90
2022-12-20T19:24:06.840Z,59.60
2022-12-20T19:27:00.142Z,59.50
2022-12-20T19:30:04.960Z,59.80
2022-12-20T19:32:51.776Z,59.80
2022-12-20T19:35:55.468Z,60.00
2022-12-20T19:47:44.168Z,59.80
2022-12-20T19:52:55.568Z,59.80
2022-12-20T19:55:24.196Z,60.10
2022-12-20T19:57:52.582Z,59.80
2022-12-20T20:00:22.698Z,60.00
2022-12-20T20:02:51.030Z,60.00
2022-12-20T20:05:19.498Z,59.90
2022-12-20T20:07:47.684Z,59.90
2022-12-20T20:10:16.032Z,60.00
2022-12-20T20:12:45.006Z,60.00
2022-12-20T20:15:13.382Z,59.90
2022-12-20T20:17:43.004Z,59.90
2022-12-20T20:20:12.546Z,59.70
2022-12-20T20:22:40.799Z,59.60
2022-12-20T20:25:09.816Z,59.70
2022-12-20T20:27:38.515Z,59.80
2022-12-20T20:30:10.997Z,59.90
2022-12-20T20:32:39.503Z,59.90
2022-12-20T20:35:11.063Z,59.40
2022-12-20T20:37:39.986Z,59.60
2022-12-20T20:40:09.468Z,59.70
2022-12-20T20:42:38.265Z,59.30
2022-12-20T20:45:07.429Z,59.30
2022-12-20T20:47:35.834Z,59.30
2022-12-20T20:50:04.296Z,59.20
2022-12-20T20:52:34.085Z,59.50
2022-12-20T20:55:02.205Z,59.20
2022-12-20T20:57:31.315Z,59.50
2022-12-20T20:59:59.553Z,59.40
2022-12-20T21:02:28.266Z,59.20
2022-12-20T21:05:35.819Z,58.90
2022-12-20T21:07:46.644Z,59.30
2022-12-20T21:10:15.592Z,59.60
2022-12-20T21:12:45.326Z,59.40
2022-12-20T21:15:23.252Z,59.40
2022-12-20T21:17:52.645Z,59.10
2022-12-20T21:20:26.021Z,59.40
2022-12-20T21:22:57.285Z,59.10
2022-12-20T21:25:25.497Z,59.30
2022-12-20T21:27:53.837Z,59.10
2022-12-20T21:30:22.038Z,59.20
2022-12-20T21:32:50.823Z,58.90
2022-12-20T21:35:19.032Z,58.80
2022-12-20T21:37:47.188Z,59.00
2022-12-20T21:40:17.210Z,58.50
2022-12-20T21:42:45.614Z,58.90
2022-12-20T21:45:13.858Z,58.80
2022-12-20T21:47:42.387Z,58.60
2022-12-20T21:50:14.152Z,58.70
2022-12-20T21:52:42.979Z,59.10
2022-12-20T21:55:11.299Z,58.70
2022-12-20T21:57:41.160Z,58.70
2022-12-20T22:00:11.199Z,58.70
2022-12-20T22:02:39.814Z,58.40
2022-12-20T22:05:09.504Z,58.60
2022-12-20T22:07:38.218Z,58.60
2022-12-20T22:10:08.125Z,58.10
2022-12-20T22:12:36.780Z,58.20
2022-12-20T22:15:07.204Z,58.60
2022-12-20T22:17:35.689Z,58.70
2022-12-20T22:20:03.917Z,58.40
2022-12-20T22:22:32.230Z,58.90
2022-12-20T22:25:00.529Z,58.20
2022-12-20T22:27:28.944Z,58.50
2022-12-20T22:29:57.151Z,58.00
2022-12-20T22:32:27.033Z,58.00
2022-12-20T22:34:55.439Z,58.40
2022-12-20T22:37:23.928Z,58.30
2022-12-20T22:39:52.276Z,58.40
2022-12-20T22:42:20.566Z,57.90
2022-12-20T22:44:49.052Z,58.30
2022-12-20T22:47:17.578Z,58.30
2022-12-20T22:49:47.115Z,57.90
2022-12-20T22:52:15.524Z,58.50
2022-12-20T22:54:43.694Z,58.00
2022-12-20T22:57:14.709Z,57.60
2022-12-20T22:59:43.037Z,58.20
2022-12-20T23:02:11.381Z,57.80
2022-12-20T23:04:39.832Z,58.10
2022-12-20T23:07:09.873Z,58.30
2022-12-20T23:09:38.897Z,58.60
2022-12-20T23:12:24.820Z,58.30
2022-12-20T23:15:11.143Z,58.00
2022-12-20T23:17:39.340Z,58.20
2022-12-20T23:20:26.660Z,57.70
2022-12-20T23:22:56.540Z,57.80
2022-12-20T23:25:25.462Z,57.70
2022-12-20T23:27:53.865Z,57.90
2022-12-20T23:30:24.653Z,58.00
2022-12-20T23:32:53.871Z,58.10
2022-12-20T23:40:32.935Z,58.10
2022-12-20T23:43:02.503Z,58.00
2022-12-20T23:45:30.697Z,58.30
2022-12-20T23:47:59.274Z,58.30
2022-12-20T23:50:27.615Z,58.50
2022-12-20T23:52:55.743Z,58.80
2022-12-20T23:55:24.005Z,58.80
2022-12-20T23:57:52.420Z,58.30
